sensor_id;sensor_type;location;lat;lon;timestamp;temperature;humidity
71184;DHT22;58887;51.980;4.464;2023-05-02T00:01:51;11.51;80.68
71184;DHT22;58887;51.980;4.464;2023-05-02T00:04:17;11.54;80.53
71184;DHT22;58887;51.980;4.464;2023-05-02T00:06:43;11.51;80.93
71184;DHT22;58887;51.980;4.464;2023-05-02T00:09:12;11.54;80.82
71184;DHT22;58887;51.980;4.464;2023-05-02T00:11:38;11.66;80.70
71184;DHT22;58887;51.980;4.464;2023-05-02T00:14:04;11.69;80.35
71184;DHT22;58887;51.980;4.464;2023-05-02T00:16:30;11.52;80.86
71184;DHT22;58887;51.980;4.464;2023-05-02T00:18:58;11.68;80.68
71184;DHT22;58887;51.980;4.464;2023-05-02T00:21:26;11.69;80.63
71184;DHT22;58887;51.980;4.464;2023-05-02T00:23:56;11.72;80.62
71184;DHT22;58887;51.980;4.464;2023-05-02T00:26:25;11.79;80.65
71184;DHT22;58887;51.980;4.464;2023-05-02T00:28:51;11.73;80.90
71184;DHT22;58887;51.980;4.464;2023-05-02T00:31:22;11.86;80.79
71184;DHT22;58887;51.980;4.464;2023-05-02T00:33:48;11.80;80.74
71184;DHT22;58887;51.980;4.464;2023-05-02T00:36:15;11.91;80.45
71184;DHT22;58887;51.980;4.464;2023-05-02T00:38:43;11.94;80.24
71184;DHT22;58887;51.980;4.464;2023-05-02T00:41:10;11.91;80.33
71184;DHT22;58887;51.980;4.464;2023-05-02T00:43:37;11.94;79.94
71184;DHT22;58887;51.980;4.464;2023-05-02T00:46:05;11.91;80.18
71184;DHT22;58887;51.980;4.464;2023-05-02T00:48:32;11.91;80.16
71184;DHT22;58887;51.980;4.464;2023-05-02T00:51:02;11.83;80.28
71184;DHT22;58887;51.980;4.464;2023-05-02T00:53:30;11.87;80.50
71184;DHT22;58887;51.980;4.464;2023-05-02T00:55:58;11.85;80.13
71184;DHT22;58887;51.980;4.464;2023-05-02T00:58:28;11.85;80.18
71184;DHT22;58887;51.980;4.464;2023-05-02T01:01:32;11.86;80.09
71184;DHT22;58887;51.980;4.464;2023-05-02T01:11:51;11.68;80.86
71184;DHT22;58887;51.980;4.464;2023-05-02T01:14:20;11.70;80.79
71184;DHT22;58887;51.980;4.464;2023-05-02T01:16:49;11.69;80.98
71184;DHT22;58887;51.980;4.464;2023-05-02T01:19:32;11.63;81.06
71184;DHT22;58887;51.980;4.464;2023-05-02T01:22:02;11.52;80.51
71184;DHT22;58887;51.980;4.464;2023-05-02T01:24:47;11.61;80.28
71184;DHT22;58887;51.980;4.464;2023-05-02T01:27:23;11.45;80.11
71184;DHT22;58887;51.980;4.464;2023-05-02T01:29:59;11.59;79.53
71184;DHT22;58887;51.980;4.464;2023-05-02T01:32:34;11.35;79.79
71184;DHT22;58887;51.980;4.464;2023-05-02T01:35:03;11.45;79.65
71184;DHT22;58887;51.980;4.464;2023-05-02T01:37:33;11.48;79.38
71184;DHT22;58887;51.980;4.464;2023-05-02T01:40:06;11.52;79.04
71184;DHT22;58887;51.980;4.464;2023-05-02T01:42:38;11.59;78.72
71184;DHT22;58887;51.980;4.464;2023-05-02T01:45:06;11.59;78.68
71184;DHT22;58887;51.980;4.464;2023-05-02T01:47:35;11.62;78.66
71184;DHT22;58887;51.980;4.464;2023-05-02T01:50:06;11.55;78.70
71184;DHT22;58887;51.980;4.464;2023-05-02T01:52:35;11.65;78.65
71184;DHT22;58887;51.980;4.464;2023-05-02T01:55:05;11.68;78.81
71184;DHT22;58887;51.980;4.464;2023-05-02T01:57:36;11.51;79.18
71184;DHT22;58887;51.980;4.464;2023-05-02T02:00:06;11.54;78.78
71184;DHT22;58887;51.980;4.464;2023-05-02T02:02:34;11.45;78.44
71184;DHT22;58887;51.980;4.464;2023-05-02T02:05:06;11.38;78.46
71184;DHT22;58887;51.980;4.464;2023-05-02T02:07:34;11.30;78.45
71184;DHT22;58887;51.980;4.464;2023-05-02T02:10:00;11.34;78.55
71184;DHT22;58887;51.980;4.464;2023-05-02T02:12:51;11.45;78.38
71184;DHT22;58887;51.980;4.464;2023-05-02T02:15:27;11.49;78.03
71184;DHT22;58887;51.980;4.464;2023-05-02T02:18:00;11.43;77.58
71184;DHT22;58887;51.980;4.464;2023-05-02T02:20:30;11.48;77.45
71184;DHT22;58887;51.980;4.464;2023-05-02T02:22:59;11.51;77.20
71184;DHT22;58887;51.980;4.464;2023-05-02T02:25:26;11.65;77.04
71184;DHT22;58887;51.980;4.464;2023-05-02T02:27:53;11.57;76.53
71184;DHT22;58887;51.980;4.464;2023-05-02T02:30:20;11.31;76.58
71184;DHT22;58887;51.980;4.464;2023-05-02T02:32:47;11.31;76.34
71184;DHT22;58887;51.980;4.464;2023-05-02T02:35:12;11.28;76.65
71184;DHT22;58887;51.980;4.464;2023-05-02T02:37:46;11.35;76.54
71184;DHT22;58887;51.980;4.464;2023-05-02T02:40:28;11.27;76.59
71184;DHT22;58887;51.980;4.464;2023-05-02T02:43:16;11.31;75.88
71184;DHT22;58887;51.980;4.464;2023-05-02T02:46:25;11.22;75.73
71184;DHT22;58887;51.980;4.464;2023-05-02T02:48:56;11.28;75.47
71184;DHT22;58887;51.980;4.464;2023-05-02T02:51:46;11.27;75.26
71184;DHT22;58887;51.980;4.464;2023-05-02T02:54:22;11.15;75.54
71184;DHT22;58887;51.980;4.464;2023-05-02T02:57:05;11.14;75.43
71184;DHT22;58887;51.980;4.464;2023-05-02T02:59:35;11.15;75.56
71184;DHT22;58887;51.980;4.464;2023-05-02T03:02:07;11.01;74.23
71184;DHT22;58887;51.980;4.464;2023-05-02T03:04:37;10.94;74.01
71184;DHT22;58887;51.980;4.464;2023-05-02T03:07:09;11.06;73.76
71184;DHT22;58887;51.980;4.464;2023-05-02T03:09:43;11.01;73.73
71184;DHT22;58887;51.980;4.464;2023-05-02T03:12:16;10.93;73.82
71184;DHT22;58887;51.980;4.464;2023-05-02T03:14:48;10.90;73.34
71184;DHT22;58887;51.980;4.464;2023-05-02T03:17:15;11.00;73.62
71184;DHT22;58887;51.980;4.464;2023-05-02T03:19:41;11.06;73.21
71184;DHT22;58887;51.980;4.464;2023-05-02T03:22:06;11.08;72.95
71184;DHT22;58887;51.980;4.464;2023-05-02T03:24:31;10.97;73.19
71184;DHT22;58887;51.980;4.464;2023-05-02T03:26:58;11.03;73.27
71184;DHT22;58887;51.980;4.464;2023-05-02T03:29:25;10.99;73.59
71184;DHT22;58887;51.980;4.464;2023-05-02T03:31:51;11.01;73.63
71184;DHT22;58887;51.980;4.464;2023-05-02T03:34:16;11.12;73.79
71184;DHT22;58887;51.980;4.464;2023-05-02T03:36:44;11.17;73.43
71184;DHT22;58887;51.980;4.464;2023-05-02T03:39:11;11.14;73.52
71184;DHT22;58887;51.980;4.464;2023-05-02T03:41:37;11.12;73.56
71184;DHT22;58887;51.980;4.464;2023-05-02T03:44:03;11.07;73.94
71184;DHT22;58887;51.980;4.464;2023-05-02T03:46:29;10.96;73.77
71184;DHT22;58887;51.980;4.464;2023-05-02T03:48:56;11.00;73.58
71184;DHT22;58887;51.980;4.464;2023-05-02T03:51:22;10.96;73.69
71184;DHT22;58887;51.980;4.464;2023-05-02T03:53:48;10.83;73.55
71184;DHT22;58887;51.980;4.464;2023-05-02T03:56:18;10.77;73.40
71184;DHT22;58887;51.980;4.464;2023-05-02T03:58:47;10.73;73.08
71184;DHT22;58887;51.980;4.464;2023-05-02T04:01:14;10.62;72.58
71184;DHT22;58887;51.980;4.464;2023-05-02T04:03:41;10.76;72.78
71184;DHT22;58887;51.980;4.464;2023-05-02T04:06:09;10.73;72.37
71184;DHT22;58887;51.980;4.464;2023-05-02T04:08:35;10.76;71.99
71184;DHT22;58887;51.980;4.464;2023-05-02T04:11:01;10.79;72.03
71184;DHT22;58887;51.980;4.464;2023-05-02T04:13:28;10.80;72.12
71184;DHT22;58887;51.980;4.464;2023-05-02T04:15:54;10.64;72.26
71184;DHT22;58887;51.980;4.464;2023-05-02T04:18:20;10.64;72.70
71184;DHT22;58887;51.980;4.464;2023-05-02T04:20:47;10.64;72.48
71184;DHT22;58887;51.980;4.464;2023-05-02T04:23:15;10.67;72.55
71184;DHT22;58887;51.980;4.464;2023-05-02T04:25:52;10.67;72.46
71184;DHT22;58887;51.980;4.464;2023-05-02T04:28:24;10.74;72.51
71184;DHT22;58887;51.980;4.464;2023-05-02T04:30:50;10.55;72.92
71184;DHT22;58887;51.980;4.464;2023-05-02T04:33:16;10.73;72.69
71184;DHT22;58887;51.980;4.464;2023-05-02T04:35:43;10.67;72.77
71184;DHT22;58887;51.980;4.464;2023-05-02T04:38:09;10.70;72.66
71184;DHT22;58887;51.980;4.464;2023-05-02T04:40:54;10.70;72.34
71184;DHT22;58887;51.980;4.464;2023-05-02T04:43:19;10.67;72.60
71184;DHT22;58887;51.980;4.464;2023-05-02T04:45:45;10.70;72.54
71184;DHT22;58887;51.980;4.464;2023-05-02T04:48:11;10.67;72.38
71184;DHT22;58887;51.980;4.464;2023-05-02T04:50:37;10.69;72.26
71184;DHT22;58887;51.980;4.464;2023-05-02T04:53:02;10.79;72.53
71184;DHT22;58887;51.980;4.464;2023-05-02T04:55:28;10.73;72.78
71184;DHT22;58887;51.980;4.464;2023-05-02T04:57:54;10.74;72.16
71184;DHT22;58887;51.980;4.464;2023-05-02T05:00:20;10.77;72.23
71184;DHT22;58887;51.980;4.464;2023-05-02T05:02:46;10.89;71.86
71184;DHT22;58887;51.980;4.464;2023-05-02T05:05:11;10.84;71.92
71184;DHT22;58887;51.980;4.464;2023-05-02T05:07:37;10.81;71.39
71184;DHT22;58887;51.980;4.464;2023-05-02T05:10:02;10.84;71.72
71184;DHT22;58887;51.980;4.464;2023-05-02T05:12:29;10.93;72.00
71184;DHT22;58887;51.980;4.464;2023-05-02T05:14:55;11.07;71.83
71184;DHT22;58887;51.980;4.464;2023-05-02T05:17:21;11.18;71.22
71184;DHT22;58887;51.980;4.464;2023-05-02T05:19:48;11.15;70.74
71184;DHT22;58887;51.980;4.464;2023-05-02T05:22:22;11.06;70.22
71184;DHT22;58887;51.980;4.464;2023-05-02T05:24:54;10.89;70.20
71184;DHT22;58887;51.980;4.464;2023-05-02T05:27:20;11.01;70.15
71184;DHT22;58887;51.980;4.464;2023-05-02T05:29:46;10.99;70.36
71184;DHT22;58887;51.980;4.464;2023-05-02T05:32:12;10.89;70.68
71184;DHT22;58887;51.980;4.464;2023-05-02T05:34:39;10.97;71.01
71184;DHT22;58887;51.980;4.464;2023-05-02T05:37:15;11.06;70.64
71184;DHT22;58887;51.980;4.464;2023-05-02T05:39:40;11.07;70.28
71184;DHT22;58887;51.980;4.464;2023-05-02T05:42:07;10.94;68.78
71184;DHT22;58887;51.980;4.464;2023-05-02T05:44:34;10.99;68.26
71184;DHT22;58887;51.980;4.464;2023-05-02T05:47:02;10.93;68.56
71184;DHT22;58887;51.980;4.464;2023-05-02T05:49:28;11.07;67.61
71184;DHT22;58887;51.980;4.464;2023-05-02T05:51:56;11.15;67.90
71184;DHT22;58887;51.980;4.464;2023-05-02T05:54:21;11.20;67.56
71184;DHT22;58887;51.980;4.464;2023-05-02T05:56:47;11.14;66.96
71184;DHT22;58887;51.980;4.464;2023-05-02T05:59:12;11.06;66.78
71184;DHT22;58887;51.980;4.464;2023-05-02T06:01:38;11.18;66.89
71184;DHT22;58887;51.980;4.464;2023-05-02T06:04:05;11.21;66.47
71184;DHT22;58887;51.980;4.464;2023-05-02T06:06:33;11.32;66.67
71184;DHT22;58887;51.980;4.464;2023-05-02T06:08:59;11.41;66.12
71184;DHT22;58887;51.980;4.464;2023-05-02T06:11:27;11.57;65.63
71184;DHT22;58887;51.980;4.464;2023-05-02T06:13:53;11.66;65.81
71184;DHT22;58887;51.980;4.464;2023-05-02T06:16:19;11.61;65.12
71184;DHT22;58887;51.980;4.464;2023-05-02T06:18:46;11.55;65.55
71184;DHT22;58887;51.980;4.464;2023-05-02T06:21:12;11.62;65.38
71184;DHT22;58887;51.980;4.464;2023-05-02T06:23:39;11.70;65.16
71184;DHT22;58887;51.980;4.464;2023-05-02T06:26:09;11.80;64.68
71184;DHT22;58887;51.980;4.464;2023-05-02T06:28:44;11.85;64.13
71184;DHT22;58887;51.980;4.464;2023-05-02T06:31:09;12.12;63.74
71184;DHT22;58887;51.980;4.464;2023-05-02T06:33:37;12.14;63.60
71184;DHT22;58887;51.980;4.464;2023-05-02T06:36:03;12.04;63.46
71184;DHT22;58887;51.980;4.464;2023-05-02T06:38:28;12.00;63.32
71184;DHT22;58887;51.980;4.464;2023-05-02T06:40:57;11.97;63.94
71184;DHT22;58887;51.980;4.464;2023-05-02T06:43:22;11.90;63.79
71184;DHT22;58887;51.980;4.464;2023-05-02T06:45:52;11.83;63.28
71184;DHT22;58887;51.980;4.464;2023-05-02T06:48:17;11.73;63.09
71184;DHT22;58887;51.980;4.464;2023-05-02T06:50:43;11.75;63.11
71184;DHT22;58887;51.980;4.464;2023-05-02T06:53:08;11.73;62.86
71184;DHT22;58887;51.980;4.464;2023-05-02T06:55:34;11.76;63.06
71184;DHT22;58887;51.980;4.464;2023-05-02T06:57:59;11.94;62.73
71184;DHT22;58887;51.980;4.464;2023-05-02T07:00:25;12.07;61.50
71184;DHT22;58887;51.980;4.464;2023-05-02T07:02:52;12.27;61.67
71184;DHT22;58887;51.980;4.464;2023-05-02T07:05:17;12.28;61.11
71184;DHT22;58887;51.980;4.464;2023-05-02T07:07:43;12.14;61.01
71184;DHT22;58887;51.980;4.464;2023-05-02T07:10:11;12.07;61.26
71184;DHT22;58887;51.980;4.464;2023-05-02T07:12:39;12.14;62.17
71184;DHT22;58887;51.980;4.464;2023-05-02T07:15:05;12.48;60.26
71184;DHT22;58887;51.980;4.464;2023-05-02T07:17:33;12.84;59.66
71184;DHT22;58887;51.980;4.464;2023-05-02T07:19:59;12.81;58.75
71184;DHT22;58887;51.980;4.464;2023-05-02T07:22:25;12.57;59.04
71184;DHT22;58887;51.980;4.464;2023-05-02T07:25:00;12.64;60.15
71184;DHT22;58887;51.980;4.464;2023-05-02T07:27:27;12.64;59.73
71184;DHT22;58887;51.980;4.464;2023-05-02T07:29:53;12.58;59.39
71184;DHT22;58887;51.980;4.464;2023-05-02T07:32:20;12.49;59.83
71184;DHT22;58887;51.980;4.464;2023-05-02T07:34:46;12.45;59.51
71184;DHT22;58887;51.980;4.464;2023-05-02T07:37:12;12.36;59.99
71184;DHT22;58887;51.980;4.464;2023-05-02T07:39:38;12.38;60.55
71184;DHT22;58887;51.980;4.464;2023-05-02T07:42:03;12.33;62.62
71184;DHT22;58887;51.980;4.464;2023-05-02T07:44:29;12.38;61.99
71184;DHT22;58887;51.980;4.464;2023-05-02T07:46:54;12.31;60.85
71184;DHT22;58887;51.980;4.464;2023-05-02T07:49:20;12.30;59.22
71184;DHT22;58887;51.980;4.464;2023-05-02T07:51:45;12.13;58.43
71184;DHT22;58887;51.980;4.464;2023-05-02T07:54:18;12.33;59.35
71184;DHT22;58887;51.980;4.464;2023-05-02T07:56:45;12.61;58.88
71184;DHT22;58887;51.980;4.464;2023-05-02T07:59:11;12.88;57.79
71184;DHT22;58887;51.980;4.464;2023-05-02T08:01:39;12.95;57.25
71184;DHT22;58887;51.980;4.464;2023-05-02T08:04:14;13.13;58.41
71184;DHT22;58887;51.980;4.464;2023-05-02T08:06:40;13.20;57.27
71184;DHT22;58887;51.980;4.464;2023-05-02T08:09:06;13.43;56.90
71184;DHT22;58887;51.980;4.464;2023-05-02T08:11:31;13.40;56.11
71184;DHT22;58887;51.980;4.464;2023-05-02T08:13:57;13.87;57.03
71184;DHT22;58887;51.980;4.464;2023-05-02T08:16:23;14.16;54.23
71184;DHT22;58887;51.980;4.464;2023-05-02T08:18:49;14.33;52.41
71184;DHT22;58887;51.980;4.464;2023-05-02T08:21:15;14.15;52.33
71184;DHT22;58887;51.980;4.464;2023-05-02T08:23:42;14.04;52.21
71184;DHT22;58887;51.980;4.464;2023-05-02T08:26:16;13.48;51.20
71184;DHT22;58887;51.980;4.464;2023-05-02T08:28:48;13.35;52.27
71184;DHT22;58887;51.980;4.464;2023-05-02T08:31:14;12.92;51.30
71184;DHT22;58887;51.980;4.464;2023-05-02T08:33:42;12.82;51.86
71184;DHT22;58887;51.980;4.464;2023-05-02T08:36:15;13.16;50.26
71184;DHT22;58887;51.980;4.464;2023-05-02T08:38:43;13.47;49.11
71184;DHT22;58887;51.980;4.464;2023-05-02T08:41:13;13.91;49.56
71184;DHT22;58887;51.980;4.464;2023-05-02T08:43:40;14.18;47.99
71184;DHT22;58887;51.980;4.464;2023-05-02T08:46:06;14.56;46.95
71184;DHT22;58887;51.980;4.464;2023-05-02T08:48:35;14.88;47.56
71184;DHT22;58887;51.980;4.464;2023-05-02T08:51:10;14.80;44.92
71184;DHT22;58887;51.980;4.464;2023-05-02T08:53:37;14.94;46.62
71184;DHT22;58887;51.980;4.464;2023-05-02T08:56:03;14.94;45.16
71184;DHT22;58887;51.980;4.464;2023-05-02T08:58:29;15.03;44.46
71184;DHT22;58887;51.980;4.464;2023-05-02T09:01:01;15.04;45.10
71184;DHT22;58887;51.980;4.464;2023-05-02T09:03:33;14.87;44.40
71184;DHT22;58887;51.980;4.464;2023-05-02T09:06:08;14.93;44.98
71184;DHT22;58887;51.980;4.464;2023-05-02T09:08:34;14.93;45.05
71184;DHT22;58887;51.980;4.464;2023-05-02T09:11:01;15.42;45.32
71184;DHT22;58887;51.980;4.464;2023-05-02T09:13:40;15.81;45.08
71184;DHT22;58887;51.980;4.464;2023-05-02T09:16:14;15.55;43.90
71184;DHT22;58887;51.980;4.464;2023-05-02T09:18:43;15.51;45.82
71184;DHT22;58887;51.980;4.464;2023-05-02T09:21:40;15.46;46.26
71184;DHT22;58887;51.980;4.464;2023-05-02T09:24:17;16.30;42.48
71184;DHT22;58887;51.980;4.464;2023-05-02T09:29:21;17.50;41.20
71184;DHT22;58887;51.980;4.464;2023-05-02T09:31:46;16.60;40.58
71184;DHT22;58887;51.980;4.464;2023-05-02T09:34:14;17.18;41.63
71184;DHT22;58887;51.980;4.464;2023-05-02T09:36:43;17.05;41.08
71184;DHT22;58887;51.980;4.464;2023-05-02T09:39:11;16.69;41.19
71184;DHT22;58887;51.980;4.464;2023-05-02T09:41:42;15.97;41.85
71184;DHT22;58887;51.980;4.464;2023-05-02T09:44:10;15.41;43.24
71184;DHT22;58887;51.980;4.464;2023-05-02T09:46:48;16.86;43.10
71184;DHT22;58887;51.980;4.464;2023-05-02T09:49:14;17.36;42.83
71184;DHT22;58887;51.980;4.464;2023-05-02T09:51:43;16.64;41.26
71184;DHT22;58887;51.980;4.464;2023-05-02T09:54:36;15.70;43.22
71184;DHT22;58887;51.980;4.464;2023-05-02T09:57:02;15.32;44.01
71184;DHT22;58887;51.980;4.464;2023-05-02T09:59:30;15.04;46.14
71184;DHT22;58887;51.980;4.464;2023-05-02T10:02:03;15.49;45.29
71184;DHT22;58887;51.980;4.464;2023-05-02T10:04:32;16.54;42.03
71184;DHT22;58887;51.980;4.464;2023-05-02T10:07:03;15.86;42.38
71184;DHT22;58887;51.980;4.464;2023-05-02T10:09:42;16.02;43.22
71184;DHT22;58887;51.980;4.464;2023-05-02T10:12:13;17.85;41.74
71184;DHT22;58887;51.980;4.464;2023-05-02T10:14:46;17.95;38.29
71184;DHT22;58887;51.980;4.464;2023-05-02T10:17:21;18.32;37.95
71184;DHT22;58887;51.980;4.464;2023-05-02T10:20:00;19.82;39.06
71184;DHT22;58887;51.980;4.464;2023-05-02T10:22:30;20.69;36.47
71184;DHT22;58887;51.980;4.464;2023-05-02T10:24:58;20.55;35.20
71184;DHT22;58887;51.980;4.464;2023-05-02T10:27:24;21.07;36.41
71184;DHT22;58887;51.980;4.464;2023-05-02T10:29:51;21.00;34.36
71184;DHT22;58887;51.980;4.464;2023-05-02T10:32:17;20.98;34.74
71184;DHT22;58887;51.980;4.464;2023-05-02T10:34:45;20.75;34.65
71184;DHT22;58887;51.980;4.464;2023-05-02T10:37:11;19.85;35.29
71184;DHT22;58887;51.980;4.464;2023-05-02T10:39:38;19.61;38.60
71184;DHT22;58887;51.980;4.464;2023-05-02T10:42:07;19.48;37.10
71184;DHT22;58887;51.980;4.464;2023-05-02T10:44:38;19.21;35.94
71184;DHT22;58887;51.980;4.464;2023-05-02T10:47:24;19.55;35.67
71184;DHT22;58887;51.980;4.464;2023-05-02T10:49:57;18.39;36.47
71184;DHT22;58887;51.980;4.464;2023-05-02T10:52:31;19.07;42.17
71184;DHT22;58887;51.980;4.464;2023-05-02T10:55:20;19.41;37.36
71184;DHT22;58887;51.980;4.464;2023-05-02T11:00:33;17.26;40.01
71184;DHT22;58887;51.980;4.464;2023-05-02T11:03:00;16.79;41.31
71184;DHT22;58887;51.980;4.464;2023-05-02T11:05:27;16.55;41.66
71184;DHT22;58887;51.980;4.464;2023-05-02T11:10:55;19.14;39.98
71184;DHT22;58887;51.980;4.464;2023-05-02T11:13:52;21.16;36.81
71184;DHT22;58887;51.980;4.464;2023-05-02T11:16:23;19.48;36.91
71184;DHT22;58887;51.980;4.464;2023-05-02T11:19:00;18.84;39.03
71184;DHT22;58887;51.980;4.464;2023-05-02T11:21:29;20.37;38.97
71184;DHT22;58887;51.980;4.464;2023-05-02T11:27:36;19.76;37.57
71184;DHT22;58887;51.980;4.464;2023-05-02T11:30:09;20.23;35.65
71184;DHT22;58887;51.980;4.464;2023-05-02T11:35:20;21.02;35.44
71184;DHT22;58887;51.980;4.464;2023-05-02T11:37:58;21.47;35.34
71184;DHT22;58887;51.980;4.464;2023-05-02T11:40:33;21.84;33.89
71184;DHT22;58887;51.980;4.464;2023-05-02T11:43:15;21.47;34.36
71184;DHT22;58887;51.980;4.464;2023-05-02T11:45:41;21.46;34.01
71184;DHT22;58887;51.980;4.464;2023-05-02T11:48:08;21.07;34.68
71184;DHT22;58887;51.980;4.464;2023-05-02T11:50:42;21.07;34.30
71184;DHT22;58887;51.980;4.464;2023-05-02T11:53:13;21.80;36.09
71184;DHT22;58887;51.980;4.464;2023-05-02T11:55:47;21.71;35.41
71184;DHT22;58887;51.980;4.464;2023-05-02T11:58:20;22.59;34.32
71184;DHT22;58887;51.980;4.464;2023-05-02T12:00:47;23.18;30.19
71184;DHT22;58887;51.980;4.464;2023-05-02T12:05:44;22.60;33.72
71184;DHT22;58887;51.980;4.464;2023-05-02T12:08:20;22.52;31.46
71184;DHT22;58887;51.980;4.464;2023-05-02T12:10:47;22.46;31.75
71184;DHT22;58887;51.980;4.464;2023-05-02T12:13:13;22.46;31.02
71184;DHT22;58887;51.980;4.464;2023-05-02T12:15:41;23.00;31.78
71184;DHT22;58887;51.980;4.464;2023-05-02T12:18:08;22.84;30.29
71184;DHT22;58887;51.980;4.464;2023-05-02T12:20:36;22.45;31.05
71184;DHT22;58887;51.980;4.464;2023-05-02T12:23:04;22.67;30.82
71184;DHT22;58887;51.980;4.464;2023-05-02T12:25:35;22.82;32.00
71184;DHT22;58887;51.980;4.464;2023-05-02T12:28:02;21.98;31.04
71184;DHT22;58887;51.980;4.464;2023-05-02T12:30:29;22.18;32.15
71184;DHT22;58887;51.980;4.464;2023-05-02T12:32:56;22.62;32.36
71184;DHT22;58887;51.980;4.464;2023-05-02T12:35:28;21.88;32.86
71184;DHT22;58887;51.980;4.464;2023-05-02T12:38:19;22.52;33.07
71184;DHT22;58887;51.980;4.464;2023-05-02T12:40:53;23.08;32.03
71184;DHT22;58887;51.980;4.464;2023-05-02T12:43:22;23.32;31.06
71184;DHT22;58887;51.980;4.464;2023-05-02T12:45:48;23.34;31.24
71184;DHT22;58887;51.980;4.464;2023-05-02T12:48:28;23.15;30.10
71184;DHT22;58887;51.980;4.464;2023-05-02T12:50:56;22.94;31.09
71184;DHT22;58887;51.980;4.464;2023-05-02T12:53:38;22.49;30.31
71184;DHT22;58887;51.980;4.464;2023-05-02T12:56:10;22.19;30.84
71184;DHT22;58887;51.980;4.464;2023-05-02T12:58:47;21.93;32.46
71184;DHT22;58887;51.980;4.464;2023-05-02T13:01:14;22.09;32.11
71184;DHT22;58887;51.980;4.464;2023-05-02T13:03:42;22.42;30.59
71184;DHT22;58887;51.980;4.464;2023-05-02T13:06:08;22.94;30.87
71184;DHT22;58887;51.980;4.464;2023-05-02T13:08:36;22.42;31.52
71184;DHT22;58887;51.980;4.464;2023-05-02T13:11:02;23.28;32.97
71184;DHT22;58887;51.980;4.464;2023-05-02T13:13:28;23.50;30.72
71184;DHT22;58887;51.980;4.464;2023-05-02T13:15:55;23.35;29.44
71184;DHT22;58887;51.980;4.464;2023-05-02T13:18:36;23.22;31.15
71184;DHT22;58887;51.980;4.464;2023-05-02T13:21:01;23.45;29.62
71184;DHT22;58887;51.980;4.464;2023-05-02T13:23:29;23.52;30.62
71184;DHT22;58887;51.980;4.464;2023-05-02T13:25:56;23.15;30.44
71184;DHT22;58887;51.980;4.464;2023-05-02T13:28:28;23.54;30.41
71184;DHT22;58887;51.980;4.464;2023-05-02T13:30:59;23.28;30.18
71184;DHT22;58887;51.980;4.464;2023-05-02T13:33:26;22.66;29.52
71184;DHT22;58887;51.980;4.464;2023-05-02T13:35:52;22.80;30.22
71184;DHT22;58887;51.980;4.464;2023-05-02T13:38:24;22.80;30.28
71184;DHT22;58887;51.980;4.464;2023-05-02T13:40:51;22.80;30.03
71184;DHT22;58887;51.980;4.464;2023-05-02T13:43:16;23.15;28.45
71184;DHT22;58887;51.980;4.464;2023-05-02T13:45:44;23.30;30.35
71184;DHT22;58887;51.980;4.464;2023-05-02T13:48:13;23.62;31.56
71184;DHT22;58887;51.980;4.464;2023-05-02T13:50:40;23.40;29.91
71184;DHT22;58887;51.980;4.464;2023-05-02T13:53:06;22.60;30.84
71184;DHT22;58887;51.980;4.464;2023-05-02T13:55:35;22.86;28.80
71184;DHT22;58887;51.980;4.464;2023-05-02T13:58:01;22.96;31.64
71184;DHT22;58887;51.980;4.464;2023-05-02T14:00:27;23.32;30.32
71184;DHT22;58887;51.980;4.464;2023-05-02T14:02:54;22.96;30.41
71184;DHT22;58887;51.980;4.464;2023-05-02T14:05:19;23.24;29.83
71184;DHT22;58887;51.980;4.464;2023-05-02T14:07:45;23.35;29.11
71184;DHT22;58887;51.980;4.464;2023-05-02T14:10:14;22.76;29.61
71184;DHT22;58887;51.980;4.464;2023-05-02T14:12:46;23.24;29.68
71184;DHT22;58887;51.980;4.464;2023-05-02T14:15:12;22.99;30.27
71184;DHT22;58887;51.980;4.464;2023-05-02T14:17:38;23.11;30.13
71184;DHT22;58887;51.980;4.464;2023-05-02T14:20:04;23.10;29.46
71184;DHT22;58887;51.980;4.464;2023-05-02T14:22:31;22.97;29.17
71184;DHT22;58887;51.980;4.464;2023-05-02T14:24:56;23.10;29.74
71184;DHT22;58887;51.980;4.464;2023-05-02T14:27:22;22.48;28.78
71184;DHT22;58887;51.980;4.464;2023-05-02T14:29:47;23.13;30.79
71184;DHT22;58887;51.980;4.464;2023-05-02T14:32:14;22.89;30.72
71184;DHT22;58887;51.980;4.464;2023-05-02T14:34:40;22.64;30.43
71184;DHT22;58887;51.980;4.464;2023-05-02T14:40:13;23.44;29.07
71184;DHT22;58887;51.980;4.464;2023-05-02T14:42:39;23.82;32.07
71184;DHT22;58887;51.980;4.464;2023-05-02T14:45:08;23.86;28.90
71184;DHT22;58887;51.980;4.464;2023-05-02T14:47:37;23.47;28.78
71184;DHT22;58887;51.980;4.464;2023-05-02T14:50:03;23.57;30.27
71184;DHT22;58887;51.980;4.464;2023-05-02T14:52:29;22.77;30.28
71184;DHT22;58887;51.980;4.464;2023-05-02T14:54:59;23.51;30.41
71184;DHT22;58887;51.980;4.464;2023-05-02T14:57:27;23.68;30.23
71184;DHT22;58887;51.980;4.464;2023-05-02T15:00:00;23.45;29.90
71184;DHT22;58887;51.980;4.464;2023-05-02T15:02:26;23.10;30.07
71184;DHT22;58887;51.980;4.464;2023-05-02T15:04:52;22.45;30.37
71184;DHT22;58887;51.980;4.464;2023-05-02T15:07:22;22.53;30.92
71184;DHT22;58887;51.980;4.464;2023-05-02T15:09:51;22.43;31.00
71184;DHT22;58887;51.980;4.464;2023-05-02T15:12:17;22.36;31.76
71184;DHT22;58887;51.980;4.464;2023-05-02T15:14:49;22.04;31.22
71184;DHT22;58887;51.980;4.464;2023-05-02T15:17:14;21.94;30.57
71184;DHT22;58887;51.980;4.464;2023-05-02T15:19:41;22.14;31.43
71184;DHT22;58887;51.980;4.464;2023-05-02T15:22:07;22.33;32.12
71184;DHT22;58887;51.980;4.464;2023-05-02T15:24:35;22.62;31.57
71184;DHT22;58887;51.980;4.464;2023-05-02T15:27:03;22.93;31.27
71184;DHT22;58887;51.980;4.464;2023-05-02T15:29:29;22.57;31.40
71184;DHT22;58887;51.980;4.464;2023-05-02T15:31:55;22.45;31.11
71184;DHT22;58887;51.980;4.464;2023-05-02T15:34:23;21.56;32.63
71184;DHT22;58887;51.980;4.464;2023-05-02T15:36:48;21.51;33.72
71184;DHT22;58887;51.980;4.464;2023-05-02T15:39:15;21.54;32.12
71184;DHT22;58887;51.980;4.464;2023-05-02T15:41:41;21.73;33.80
71184;DHT22;58887;51.980;4.464;2023-05-02T15:44:07;22.22;33.98
71184;DHT22;58887;51.980;4.464;2023-05-02T15:46:37;21.56;31.57
71184;DHT22;58887;51.980;4.464;2023-05-02T15:49:05;21.40;31.56
71184;DHT22;58887;51.980;4.464;2023-05-02T15:51:30;21.25;33.43
71184;DHT22;58887;51.980;4.464;2023-05-02T15:53:56;21.58;33.19
71184;DHT22;58887;51.980;4.464;2023-05-02T15:56:21;20.64;34.15
71184;DHT22;58887;51.980;4.464;2023-05-02T15:58:47;20.33;33.60
71184;DHT22;58887;51.980;4.464;2023-05-02T16:01:21;20.18;34.76
71184;DHT22;58887;51.980;4.464;2023-05-02T16:03:48;20.78;33.18
71184;DHT22;58887;51.980;4.464;2023-05-02T16:06:20;20.37;34.19
71184;DHT22;58887;51.980;4.464;2023-05-02T16:08:46;20.03;34.76
71184;DHT22;58887;51.980;4.464;2023-05-02T16:11:13;20.12;35.15